Arcadia, Missouri
Current Conditions -  °F | °C
As of 8:55 AM on Saturday 20 Dec 2014 (Local Time) from KFAM Reporting Station
Overcast Overcast  
Wind Chill:   Ceiling: 2200
Heat Index:   Visibility: 7mi
Dew Point:   Wind: 3mph
Humidity: 87%   Direction: 110°ESE
Pressure: 30.28"   Gusts: NA
Location:  37.59°N, 90.63°W
Report Text: KFAM 201455Z AUTO 11003KT 7SM OVC022 02/00 A3028 RMK AO1 52014
Loading
Personal Weather Stations






























Interactive Weather Map New forecast layout! Learn more

10-Day Weather Forecast

Advertisements
Track Severe Weather on mobile